sensor_id;sensor_type;location;lat;lon;timestamp;P1;durP1;ratioP1;P2;durP2;ratioP2
26040;SDS011;13816;53.628;9.950;2023-03-20T00:02:24;62.37;;;32.10;;
26040;SDS011;13816;53.628;9.950;2023-03-20T00:04:51;69.47;;;31.70;;
26040;SDS011;13816;53.628;9.950;2023-03-20T00:07:17;65.30;;;32.37;;
26040;SDS011;13816;53.628;9.950;2023-03-20T00:09:43;72.23;;;34.33;;
26040;SDS011;13816;53.628;9.950;2023-03-20T00:12:13;72.40;;;33.70;;
26040;SDS011;13816;53.628;9.950;2023-03-20T00:14:40;75.07;;;33.33;;
26040;SDS011;13816;53.628;9.950;2023-03-20T00:17:16;69.80;;;34.07;;
26040;SDS011;13816;53.628;9.950;2023-03-20T00:19:44;65.50;;;32.77;;
26040;SDS011;13816;53.628;9.950;2023-03-20T00:22:10;65.60;;;33.67;;
26040;SDS011;13816;53.628;9.950;2023-03-20T00:24:37;66.90;;;32.90;;
26040;SDS011;13816;53.628;9.950;2023-03-20T00:27:03;72.17;;;33.37;;
26040;SDS011;13816;53.628;9.950;2023-03-20T00:29:30;68.57;;;31.83;;
26040;SDS011;13816;53.628;9.950;2023-03-20T00:31:58;63.80;;;32.23;;
26040;SDS011;13816;53.628;9.950;2023-03-20T00:34:26;74.43;;;33.27;;
26040;SDS011;13816;53.628;9.950;2023-03-20T00:36:56;59.97;;;30.60;;
26040;SDS011;13816;53.628;9.950;2023-03-20T00:39:24;66.70;;;32.70;;
26040;SDS011;13816;53.628;9.950;2023-03-20T00:41:51;69.20;;;33.83;;
26040;SDS011;13816;53.628;9.950;2023-03-20T00:44:26;69.50;;;33.00;;
26040;SDS011;13816;53.628;9.950;2023-03-20T00:46:55;61.37;;;31.50;;
26040;SDS011;13816;53.628;9.950;2023-03-20T00:49:24;65.23;;;33.33;;
26040;SDS011;13816;53.628;9.950;2023-03-20T00:51:52;66.00;;;31.33;;
26040;SDS011;13816;53.628;9.950;2023-03-20T00:54:18;63.73;;;31.37;;
26040;SDS011;13816;53.628;9.950;2023-03-20T00:56:46;69.53;;;34.47;;
26040;SDS011;13816;53.628;9.950;2023-03-20T00:59:14;68.77;;;32.90;;
26040;SDS011;13816;53.628;9.950;2023-03-20T01:01:41;62.40;;;30.97;;
26040;SDS011;13816;53.628;9.950;2023-03-20T01:04:10;61.37;;;32.53;;
26040;SDS011;13816;53.628;9.950;2023-03-20T01:06:36;66.10;;;32.07;;
26040;SDS011;13816;53.628;9.950;2023-03-20T01:09:03;62.73;;;32.17;;
26040;SDS011;13816;53.628;9.950;2023-03-20T01:11:29;61.77;;;30.20;;
26040;SDS011;13816;53.628;9.950;2023-03-20T01:13:55;62.60;;;31.57;;
26040;SDS011;13816;53.628;9.950;2023-03-20T01:16:23;63.77;;;32.70;;
26040;SDS011;13816;53.628;9.950;2023-03-20T01:18:51;59.10;;;30.60;;
26040;SDS011;13816;53.628;9.950;2023-03-20T01:21:18;60.17;;;30.90;;
26040;SDS011;13816;53.628;9.950;2023-03-20T01:23:44;60.60;;;30.83;;
26040;SDS011;13816;53.628;9.950;2023-03-20T01:26:21;65.80;;;34.70;;
26040;SDS011;13816;53.628;9.950;2023-03-20T01:28:48;66.10;;;32.83;;
26040;SDS011;13816;53.628;9.950;2023-03-20T01:31:16;68.53;;;32.33;;
26040;SDS011;13816;53.628;9.950;2023-03-20T01:33:42;59.97;;;31.40;;
26040;SDS011;13816;53.628;9.950;2023-03-20T01:36:12;64.73;;;31.33;;
26040;SDS011;13816;53.628;9.950;2023-03-20T01:38:39;62.13;;;31.30;;
26040;SDS011;13816;53.628;9.950;2023-03-20T01:41:08;67.03;;;32.87;;
26040;SDS011;13816;53.628;9.950;2023-03-20T01:43:38;63.03;;;32.87;;
26040;SDS011;13816;53.628;9.950;2023-03-20T01:51:19;61.93;;;29.87;;
26040;SDS011;13816;53.628;9.950;2023-03-20T01:53:49;67.23;;;31.80;;
26040;SDS011;13816;53.628;9.950;2023-03-20T01:56:17;58.73;;;30.07;;
26040;SDS011;13816;53.628;9.950;2023-03-20T01:58:47;61.90;;;29.97;;
26040;SDS011;13816;53.628;9.950;2023-03-20T02:01:14;50.03;;;27.47;;
26040;SDS011;13816;53.628;9.950;2023-03-20T02:03:45;54.37;;;27.27;;
26040;SDS011;13816;53.628;9.950;2023-03-20T02:06:30;59.87;;;29.03;;
26040;SDS011;13816;53.628;9.950;2023-03-20T02:09:11;50.57;;;25.67;;
26040;SDS011;13816;53.628;9.950;2023-03-20T02:11:40;49.67;;;25.53;;
26040;SDS011;13816;53.628;9.950;2023-03-20T02:14:07;49.80;;;27.03;;
26040;SDS011;13816;53.628;9.950;2023-03-20T02:17:00;51.00;;;24.93;;
26040;SDS011;13816;53.628;9.950;2023-03-20T02:19:49;50.87;;;25.17;;
26040;SDS011;13816;53.628;9.950;2023-03-20T02:28:26;39.40;;;20.60;;
26040;SDS011;13816;53.628;9.950;2023-03-20T02:41:01;34.20;;;18.37;;
26040;SDS011;13816;53.628;9.950;2023-03-20T02:43:33;32.30;;;18.40;;
26040;SDS011;13816;53.628;9.950;2023-03-20T02:46:06;27.47;;;15.00;;
26040;SDS011;13816;53.628;9.950;2023-03-20T02:48:46;23.77;;;13.10;;
26040;SDS011;13816;53.628;9.950;2023-03-20T02:51:30;19.40;;;12.00;;
26040;SDS011;13816;53.628;9.950;2023-03-20T02:56:41;16.50;;;9.97;;
26040;SDS011;13816;53.628;9.950;2023-03-20T03:01:41;19.30;;;10.97;;
26040;SDS011;13816;53.628;9.950;2023-03-20T03:04:10;17.50;;;10.07;;
26040;SDS011;13816;53.628;9.950;2023-03-20T03:06:39;16.80;;;10.50;;
26040;SDS011;13816;53.628;9.950;2023-03-20T03:09:11;15.67;;;9.43;;
26040;SDS011;13816;53.628;9.950;2023-03-20T03:11:43;15.73;;;8.70;;
26040;SDS011;13816;53.628;9.950;2023-03-20T03:14:18;14.37;;;9.10;;
26040;SDS011;13816;53.628;9.950;2023-03-20T03:16:46;13.87;;;8.50;;
26040;SDS011;13816;53.628;9.950;2023-03-20T03:19:15;16.33;;;8.97;;
26040;SDS011;13816;53.628;9.950;2023-03-20T03:21:44;12.00;;;7.00;;
26040;SDS011;13816;53.628;9.950;2023-03-20T03:24:28;11.73;;;7.93;;
26040;SDS011;13816;53.628;9.950;2023-03-20T03:26:58;14.67;;;9.17;;
26040;SDS011;13816;53.628;9.950;2023-03-20T03:29:35;15.67;;;9.37;;
26040;SDS011;13816;53.628;9.950;2023-03-20T03:32:04;12.70;;;8.57;;
26040;SDS011;13816;53.628;9.950;2023-03-20T03:34:31;15.37;;;9.70;;
26040;SDS011;13816;53.628;9.950;2023-03-20T03:37:02;11.60;;;8.53;;
26040;SDS011;13816;53.628;9.950;2023-03-20T03:39:35;12.47;;;8.30;;
26040;SDS011;13816;53.628;9.950;2023-03-20T03:42:10;15.67;;;9.67;;
26040;SDS011;13816;53.628;9.950;2023-03-20T03:49:43;14.70;;;9.10;;
26040;SDS011;13816;53.628;9.950;2023-03-20T03:52:17;11.80;;;8.80;;
26040;SDS011;13816;53.628;9.950;2023-03-20T03:54:54;12.10;;;8.50;;
26040;SDS011;13816;53.628;9.950;2023-03-20T03:57:32;17.20;;;10.40;;
26040;SDS011;13816;53.628;9.950;2023-03-20T04:00:00;12.83;;;8.27;;
26040;SDS011;13816;53.628;9.950;2023-03-20T04:02:38;15.47;;;8.73;;
26040;SDS011;13816;53.628;9.950;2023-03-20T04:05:05;13.50;;;8.90;;
26040;SDS011;13816;53.628;9.950;2023-03-20T04:07:32;16.50;;;8.47;;
26040;SDS011;13816;53.628;9.950;2023-03-20T04:09:58;11.77;;;8.60;;
26040;SDS011;13816;53.628;9.950;2023-03-20T04:14:50;12.00;;;8.27;;
26040;SDS011;13816;53.628;9.950;2023-03-20T04:17:20;12.47;;;8.77;;
26040;SDS011;13816;53.628;9.950;2023-03-20T04:19:46;12.03;;;7.63;;
26040;SDS011;13816;53.628;9.950;2023-03-20T04:22:12;12.13;;;7.90;;
26040;SDS011;13816;53.628;9.950;2023-03-20T04:24:38;12.23;;;8.00;;
26040;SDS011;13816;53.628;9.950;2023-03-20T04:27:04;10.83;;;7.30;;
26040;SDS011;13816;53.628;9.950;2023-03-20T04:29:31;13.27;;;8.10;;
26040;SDS011;13816;53.628;9.950;2023-03-20T04:32:14;10.77;;;7.27;;
26040;SDS011;13816;53.628;9.950;2023-03-20T04:34:56;11.90;;;8.80;;
26040;SDS011;13816;53.628;9.950;2023-03-20T04:37:42;13.70;;;8.73;;
26040;SDS011;13816;53.628;9.950;2023-03-20T04:40:09;12.93;;;9.03;;
26040;SDS011;13816;53.628;9.950;2023-03-20T04:42:39;14.30;;;10.03;;
26040;SDS011;13816;53.628;9.950;2023-03-20T04:45:05;14.20;;;10.20;;
26040;SDS011;13816;53.628;9.950;2023-03-20T04:47:34;15.37;;;9.30;;
26040;SDS011;13816;53.628;9.950;2023-03-20T04:50:00;16.40;;;10.93;;
26040;SDS011;13816;53.628;9.950;2023-03-20T04:52:28;17.90;;;10.50;;
26040;SDS011;13816;53.628;9.950;2023-03-20T04:54:55;14.73;;;10.47;;
26040;SDS011;13816;53.628;9.950;2023-03-20T04:57:22;16.10;;;11.50;;
26040;SDS011;13816;53.628;9.950;2023-03-20T04:59:48;16.90;;;10.90;;
26040;SDS011;13816;53.628;9.950;2023-03-20T05:02:15;17.80;;;11.77;;
26040;SDS011;13816;53.628;9.950;2023-03-20T05:04:42;16.80;;;11.37;;
26040;SDS011;13816;53.628;9.950;2023-03-20T05:07:09;19.43;;;11.33;;
26040;SDS011;13816;53.628;9.950;2023-03-20T05:09:46;14.17;;;10.77;;
26040;SDS011;13816;53.628;9.950;2023-03-20T05:12:13;15.10;;;10.33;;
26040;SDS011;13816;53.628;9.950;2023-03-20T05:15:11;14.83;;;10.43;;
26040;SDS011;13816;53.628;9.950;2023-03-20T05:17:37;13.20;;;9.30;;
26040;SDS011;13816;53.628;9.950;2023-03-20T05:20:32;9.90;;;7.67;;
26040;SDS011;13816;53.628;9.950;2023-03-20T05:23:22;11.83;;;9.33;;
26040;SDS011;13816;53.628;9.950;2023-03-20T05:26:04;13.30;;;9.10;;
26040;SDS011;13816;53.628;9.950;2023-03-20T05:28:53;13.77;;;8.87;;
26040;SDS011;13816;53.628;9.950;2023-03-20T05:31:38;14.17;;;8.77;;
26040;SDS011;13816;53.628;9.950;2023-03-20T05:34:23;13.70;;;9.77;;
26040;SDS011;13816;53.628;9.950;2023-03-20T05:37:08;12.33;;;8.70;;
26040;SDS011;13816;53.628;9.950;2023-03-20T05:39:53;12.23;;;9.30;;
26040;SDS011;13816;53.628;9.950;2023-03-20T05:42:38;12.30;;;8.20;;
26040;SDS011;13816;53.628;9.950;2023-03-20T05:45:05;12.83;;;8.80;;
26040;SDS011;13816;53.628;9.950;2023-03-20T05:47:50;12.43;;;9.40;;
26040;SDS011;13816;53.628;9.950;2023-03-20T05:50:24;11.63;;;9.23;;
26040;SDS011;13816;53.628;9.950;2023-03-20T05:53:00;12.83;;;9.20;;
26040;SDS011;13816;53.628;9.950;2023-03-20T05:55:42;14.83;;;9.10;;
26040;SDS011;13816;53.628;9.950;2023-03-20T05:58:30;9.40;;;8.10;;
26040;SDS011;13816;53.628;9.950;2023-03-20T06:01:02;14.70;;;9.47;;
26040;SDS011;13816;53.628;9.950;2023-03-20T06:03:47;15.43;;;9.80;;
26040;SDS011;13816;53.628;9.950;2023-03-20T06:06:19;13.40;;;9.90;;
26040;SDS011;13816;53.628;9.950;2023-03-20T06:08:49;13.90;;;9.90;;
26040;SDS011;13816;53.628;9.950;2023-03-20T06:11:16;14.47;;;9.67;;
26040;SDS011;13816;53.628;9.950;2023-03-20T06:13:42;15.53;;;9.93;;
26040;SDS011;13816;53.628;9.950;2023-03-20T06:16:11;16.70;;;10.40;;
26040;SDS011;13816;53.628;9.950;2023-03-20T06:18:37;14.17;;;10.77;;
26040;SDS011;13816;53.628;9.950;2023-03-20T06:21:05;13.20;;;10.40;;
26040;SDS011;13816;53.628;9.950;2023-03-20T06:23:32;13.10;;;9.97;;
26040;SDS011;13816;53.628;9.950;2023-03-20T06:26:00;14.13;;;10.40;;
26040;SDS011;13816;53.628;9.950;2023-03-20T06:28:27;17.00;;;10.80;;
26040;SDS011;13816;53.628;9.950;2023-03-20T06:31:00;16.10;;;10.40;;
26040;SDS011;13816;53.628;9.950;2023-03-20T06:33:27;14.90;;;10.43;;
26040;SDS011;13816;53.628;9.950;2023-03-20T06:35:57;14.60;;;10.30;;
26040;SDS011;13816;53.628;9.950;2023-03-20T06:38:26;17.67;;;11.47;;
26040;SDS011;13816;53.628;9.950;2023-03-20T06:40:53;14.03;;;10.67;;
26040;SDS011;13816;53.628;9.950;2023-03-20T06:43:19;15.20;;;11.50;;
26040;SDS011;13816;53.628;9.950;2023-03-20T06:45:50;15.90;;;10.30;;
26040;SDS011;13816;53.628;9.950;2023-03-20T06:48:20;15.40;;;9.83;;
26040;SDS011;13816;53.628;9.950;2023-03-20T06:50:48;12.27;;;9.30;;
26040;SDS011;13816;53.628;9.950;2023-03-20T06:53:16;10.73;;;8.73;;
26040;SDS011;13816;53.628;9.950;2023-03-20T06:55:49;13.03;;;8.53;;
26040;SDS011;13816;53.628;9.950;2023-03-20T06:58:16;15.83;;;9.13;;
26040;SDS011;13816;53.628;9.950;2023-03-20T07:00:44;16.70;;;9.03;;
26040;SDS011;13816;53.628;9.950;2023-03-20T07:03:11;11.90;;;9.47;;
26040;SDS011;13816;53.628;9.950;2023-03-20T07:05:38;15.47;;;9.40;;
26040;SDS011;13816;53.628;9.950;2023-03-20T07:08:07;12.83;;;8.10;;
26040;SDS011;13816;53.628;9.950;2023-03-20T07:10:34;12.53;;;7.80;;
26040;SDS011;13816;53.628;9.950;2023-03-20T07:13:02;12.60;;;8.33;;
26040;SDS011;13816;53.628;9.950;2023-03-20T07:15:29;13.23;;;7.80;;
26040;SDS011;13816;53.628;9.950;2023-03-20T07:17:55;12.70;;;8.00;;
26040;SDS011;13816;53.628;9.950;2023-03-20T07:20:25;8.90;;;6.37;;
26040;SDS011;13816;53.628;9.950;2023-03-20T07:22:51;10.77;;;7.63;;
26040;SDS011;13816;53.628;9.950;2023-03-20T07:25:22;11.03;;;8.40;;
26040;SDS011;13816;53.628;9.950;2023-03-20T07:27:48;11.83;;;8.70;;
26040;SDS011;13816;53.628;9.950;2023-03-20T07:30:18;13.70;;;9.90;;
26040;SDS011;13816;53.628;9.950;2023-03-20T07:32:45;14.10;;;9.20;;
26040;SDS011;13816;53.628;9.950;2023-03-20T07:35:13;12.60;;;9.00;;
26040;SDS011;13816;53.628;9.950;2023-03-20T07:37:41;12.60;;;8.27;;
26040;SDS011;13816;53.628;9.950;2023-03-20T07:40:08;11.37;;;8.37;;
26040;SDS011;13816;53.628;9.950;2023-03-20T07:42:44;14.63;;;8.30;;
26040;SDS011;13816;53.628;9.950;2023-03-20T07:45:22;13.33;;;7.43;;
26040;SDS011;13816;53.628;9.950;2023-03-20T07:47:49;11.57;;;8.17;;
26040;SDS011;13816;53.628;9.950;2023-03-20T07:50:15;16.73;;;9.20;;
26040;SDS011;13816;53.628;9.950;2023-03-20T07:52:45;10.37;;;8.27;;
26040;SDS011;13816;53.628;9.950;2023-03-20T07:55:11;10.70;;;7.60;;
26040;SDS011;13816;53.628;9.950;2023-03-20T07:57:37;11.63;;;7.07;;
26040;SDS011;13816;53.628;9.950;2023-03-20T08:00:04;9.40;;;7.17;;
26040;SDS011;13816;53.628;9.950;2023-03-20T08:02:36;10.73;;;7.77;;
26040;SDS011;13816;53.628;9.950;2023-03-20T08:05:03;13.77;;;7.63;;
26040;SDS011;13816;53.628;9.950;2023-03-20T08:07:30;8.17;;;7.10;;
26040;SDS011;13816;53.628;9.950;2023-03-20T08:09:56;11.70;;;6.97;;
26040;SDS011;13816;53.628;9.950;2023-03-20T08:12:23;9.60;;;6.93;;
26040;SDS011;13816;53.628;9.950;2023-03-20T08:14:49;9.67;;;7.03;;
26040;SDS011;13816;53.628;9.950;2023-03-20T08:17:15;9.57;;;6.47;;
26040;SDS011;13816;53.628;9.950;2023-03-20T08:19:41;11.70;;;7.17;;
26040;SDS011;13816;53.628;9.950;2023-03-20T08:22:07;10.83;;;7.57;;
26040;SDS011;13816;53.628;9.950;2023-03-20T08:24:33;9.27;;;6.70;;
26040;SDS011;13816;53.628;9.950;2023-03-20T08:26:59;8.80;;;6.23;;
26040;SDS011;13816;53.628;9.950;2023-03-20T08:29:25;13.00;;;6.57;;
26040;SDS011;13816;53.628;9.950;2023-03-20T08:31:52;9.00;;;5.80;;
26040;SDS011;13816;53.628;9.950;2023-03-20T08:34:18;9.77;;;7.10;;
26040;SDS011;13816;53.628;9.950;2023-03-20T08:36:44;7.97;;;5.90;;
26040;SDS011;13816;53.628;9.950;2023-03-20T08:39:10;13.63;;;6.00;;
26040;SDS011;13816;53.628;9.950;2023-03-20T08:41:36;8.27;;;5.30;;
26040;SDS011;13816;53.628;9.950;2023-03-20T08:44:03;7.63;;;5.73;;
26040;SDS011;13816;53.628;9.950;2023-03-20T08:46:30;8.93;;;6.30;;
26040;SDS011;13816;53.628;9.950;2023-03-20T08:48:56;6.20;;;4.87;;
26040;SDS011;13816;53.628;9.950;2023-03-20T08:51:23;7.90;;;6.00;;
26040;SDS011;13816;53.628;9.950;2023-03-20T08:53:49;10.27;;;5.87;;
26040;SDS011;13816;53.628;9.950;2023-03-20T08:56:16;6.87;;;5.53;;
26040;SDS011;13816;53.628;9.950;2023-03-20T08:58:42;8.73;;;6.00;;
26040;SDS011;13816;53.628;9.950;2023-03-20T09:01:08;10.10;;;5.60;;
26040;SDS011;13816;53.628;9.950;2023-03-20T09:03:35;11.47;;;6.70;;
26040;SDS011;13816;53.628;9.950;2023-03-20T09:06:04;10.33;;;5.93;;
26040;SDS011;13816;53.628;9.950;2023-03-20T09:08:33;13.07;;;6.37;;
26040;SDS011;13816;53.628;9.950;2023-03-20T09:11:00;11.30;;;6.93;;
26040;SDS011;13816;53.628;9.950;2023-03-20T09:13:26;8.23;;;6.70;;
26040;SDS011;13816;53.628;9.950;2023-03-20T09:15:53;9.53;;;7.30;;
26040;SDS011;13816;53.628;9.950;2023-03-20T09:18:20;9.10;;;6.37;;
26040;SDS011;13816;53.628;9.950;2023-03-20T09:20:46;9.20;;;7.00;;
26040;SDS011;13816;53.628;9.950;2023-03-20T09:23:13;9.13;;;6.50;;
26040;SDS011;13816;53.628;9.950;2023-03-20T09:25:39;7.13;;;6.13;;
26040;SDS011;13816;53.628;9.950;2023-03-20T09:28:05;9.57;;;6.67;;
26040;SDS011;13816;53.628;9.950;2023-03-20T09:30:31;8.80;;;6.37;;
26040;SDS011;13816;53.628;9.950;2023-03-20T09:32:57;8.17;;;6.10;;
26040;SDS011;13816;53.628;9.950;2023-03-20T09:35:23;12.10;;;7.23;;
26040;SDS011;13816;53.628;9.950;2023-03-20T09:37:49;10.37;;;7.17;;
26040;SDS011;13816;53.628;9.950;2023-03-20T09:55:26;16.33;;;7.63;;
26040;SDS011;13816;53.628;9.950;2023-03-20T09:58:01;10.43;;;7.20;;
26040;SDS011;13816;53.628;9.950;2023-03-20T10:00:28;13.20;;;8.07;;
26040;SDS011;13816;53.628;9.950;2023-03-20T10:03:14;11.60;;;7.57;;
26040;SDS011;13816;53.628;9.950;2023-03-20T10:05:43;11.80;;;8.20;;
26040;SDS011;13816;53.628;9.950;2023-03-20T10:08:11;13.50;;;8.77;;
26040;SDS011;13816;53.628;9.950;2023-03-20T10:13:24;12.33;;;8.23;;
26040;SDS011;13816;53.628;9.950;2023-03-20T10:15:54;11.87;;;7.83;;
26040;SDS011;13816;53.628;9.950;2023-03-20T10:18:28;17.97;;;9.10;;
26040;SDS011;13816;53.628;9.950;2023-03-20T10:20:58;10.27;;;8.10;;
26040;SDS011;13816;53.628;9.950;2023-03-20T10:26:12;13.33;;;8.37;;
26040;SDS011;13816;53.628;9.950;2023-03-20T10:36:38;16.60;;;8.77;;
26040;SDS011;13816;53.628;9.950;2023-03-20T10:42:08;16.57;;;8.57;;
26040;SDS011;13816;53.628;9.950;2023-03-20T10:44:38;17.10;;;8.20;;
26040;SDS011;13816;53.628;9.950;2023-03-20T10:47:06;13.00;;;7.87;;
26040;SDS011;13816;53.628;9.950;2023-03-20T10:49:41;13.83;;;7.50;;
26040;SDS011;13816;53.628;9.950;2023-03-20T10:52:50;22.07;;;8.73;;
26040;SDS011;13816;53.628;9.950;2023-03-20T10:55:05;19.40;;;8.77;;
26040;SDS011;13816;53.628;9.950;2023-03-20T10:57:33;13.80;;;8.47;;
26040;SDS011;13816;53.628;9.950;2023-03-20T11:00:00;17.97;;;8.20;;
26040;SDS011;13816;53.628;9.950;2023-03-20T11:02:27;14.80;;;8.00;;
26040;SDS011;13816;53.628;9.950;2023-03-20T11:04:54;13.13;;;8.43;;
26040;SDS011;13816;53.628;9.950;2023-03-20T11:07:32;15.00;;;8.10;;
26040;SDS011;13816;53.628;9.950;2023-03-20T11:17:39;15.00;;;7.87;;
26040;SDS011;13816;53.628;9.950;2023-03-20T11:20:06;13.55;;;8.10;;
26040;SDS011;13816;53.628;9.950;2023-03-20T11:22:39;15.43;;;8.30;;
26040;SDS011;13816;53.628;9.950;2023-03-20T11:25:05;14.50;;;8.23;;
26040;SDS011;13816;53.628;9.950;2023-03-20T11:27:32;12.27;;;8.48;;
26040;SDS011;13816;53.628;9.950;2023-03-20T11:30:00;12.53;;;7.97;;
26040;SDS011;13816;53.628;9.950;2023-03-20T11:32:31;13.83;;;8.20;;
26040;SDS011;13816;53.628;9.950;2023-03-20T11:35:09;15.00;;;7.63;;
26040;SDS011;13816;53.628;9.950;2023-03-20T11:37:35;13.00;;;7.47;;
26040;SDS011;13816;53.628;9.950;2023-03-20T11:42:50;15.60;;;7.53;;
26040;SDS011;13816;53.628;9.950;2023-03-20T11:45:17;15.97;;;8.10;;
26040;SDS011;13816;53.628;9.950;2023-03-20T11:47:47;15.90;;;8.60;;
26040;SDS011;13816;53.628;9.950;2023-03-20T11:50:33;16.73;;;10.73;;
26040;SDS011;13816;53.628;9.950;2023-03-20T11:53:03;12.90;;;9.47;;
26040;SDS011;13816;53.628;9.950;2023-03-20T11:55:39;15.50;;;8.63;;
26040;SDS011;13816;53.628;9.950;2023-03-20T11:58:06;15.57;;;8.93;;
26040;SDS011;13816;53.628;9.950;2023-03-20T12:00:39;14.50;;;7.67;;
26040;SDS011;13816;53.628;9.950;2023-03-20T12:05:51;12.40;;;8.10;;
26040;SDS011;13816;53.628;9.950;2023-03-20T12:08:25;22.83;;;9.03;;
26040;SDS011;13816;53.628;9.950;2023-03-20T12:10:53;19.83;;;7.40;;
26040;SDS011;13816;53.628;9.950;2023-03-20T12:15:50;12.90;;;7.37;;
26040;SDS011;13816;53.628;9.950;2023-03-20T12:18:24;11.00;;;7.00;;
26040;SDS011;13816;53.628;9.950;2023-03-20T12:20:56;13.40;;;7.30;;
26040;SDS011;13816;53.628;9.950;2023-03-20T12:23:29;13.03;;;7.43;;
26040;SDS011;13816;53.628;9.950;2023-03-20T12:36:23;19.50;;;8.03;;
26040;SDS011;13816;53.628;9.950;2023-03-20T12:38:50;10.97;;;7.03;;
26040;SDS011;13816;53.628;9.950;2023-03-20T12:43:54;14.37;;;6.53;;
26040;SDS011;13816;53.628;9.950;2023-03-20T12:52:31;8.87;;;6.50;;
26040;SDS011;13816;53.628;9.950;2023-03-20T12:57:12;13.53;;;7.13;;
26040;SDS011;13816;53.628;9.950;2023-03-20T13:02:39;11.97;;;7.30;;
26040;SDS011;13816;53.628;9.950;2023-03-20T13:05:22;14.77;;;7.20;;
26040;SDS011;13816;53.628;9.950;2023-03-20T13:08:38;11.33;;;6.60;;
26040;SDS011;13816;53.628;9.950;2023-03-20T13:21:08;9.53;;;5.80;;
26040;SDS011;13816;53.628;9.950;2023-03-20T13:23:41;13.67;;;7.10;;
26040;SDS011;13816;53.628;9.950;2023-03-20T13:39:17;10.27;;;6.50;;
26040;SDS011;13816;53.628;9.950;2023-03-20T13:41:45;11.83;;;7.10;;
26040;SDS011;13816;53.628;9.950;2023-03-20T13:44:12;9.77;;;6.83;;
26040;SDS011;13816;53.628;9.950;2023-03-20T13:46:45;10.93;;;5.93;;
26040;SDS011;13816;53.628;9.950;2023-03-20T13:49:18;10.67;;;5.63;;
26040;SDS011;13816;53.628;9.950;2023-03-20T13:51:48;12.30;;;5.90;;
26040;SDS011;13816;53.628;9.950;2023-03-20T13:57:12;8.93;;;6.27;;
26040;SDS011;13816;53.628;9.950;2023-03-20T14:04:37;9.73;;;7.60;;
26040;SDS011;13816;53.628;9.950;2023-03-20T14:07:25;12.70;;;8.30;;
26040;SDS011;13816;53.628;9.950;2023-03-20T14:09:51;12.33;;;6.20;;
26040;SDS011;13816;53.628;9.950;2023-03-20T14:12:18;10.87;;;7.43;;
26040;SDS011;13816;53.628;9.950;2023-03-20T14:14:49;10.17;;;6.93;;
26040;SDS011;13816;53.628;9.950;2023-03-20T14:19:43;11.53;;;6.73;;
26040;SDS011;13816;53.628;9.950;2023-03-20T14:22:13;8.90;;;6.80;;
26040;SDS011;13816;53.628;9.950;2023-03-20T14:24:40;14.93;;;7.53;;
26040;SDS011;13816;53.628;9.950;2023-03-20T14:27:15;11.93;;;6.50;;
26040;SDS011;13816;53.628;9.950;2023-03-20T14:29:41;10.90;;;6.90;;
26040;SDS011;13816;53.628;9.950;2023-03-20T14:34:47;8.93;;;5.90;;
26040;SDS011;13816;53.628;9.950;2023-03-20T14:40:02;15.23;;;6.53;;
26040;SDS011;13816;53.628;9.950;2023-03-20T14:50:35;11.30;;;6.17;;
26040;SDS011;13816;53.628;9.950;2023-03-20T14:55:31;11.03;;;6.00;;
26040;SDS011;13816;53.628;9.950;2023-03-20T14:58:01;10.17;;;5.70;;
26040;SDS011;13816;53.628;9.950;2023-03-20T15:00:28;8.83;;;6.30;;
26040;SDS011;13816;53.628;9.950;2023-03-20T15:03:05;9.67;;;5.80;;
26040;SDS011;13816;53.628;9.950;2023-03-20T15:05:32;9.67;;;5.80;;
26040;SDS011;13816;53.628;9.950;2023-03-20T15:08:07;10.53;;;6.57;;
26040;SDS011;13816;53.628;9.950;2023-03-20T15:10:35;17.93;;;7.53;;
26040;SDS011;13816;53.628;9.950;2023-03-20T15:13:06;9.77;;;5.80;;
26040;SDS011;13816;53.628;9.950;2023-03-20T15:15:32;10.67;;;6.63;;
26040;SDS011;13816;53.628;9.950;2023-03-20T15:18:02;9.30;;;6.47;;
26040;SDS011;13816;53.628;9.950;2023-03-20T15:20:29;11.17;;;6.10;;
26040;SDS011;13816;53.628;9.950;2023-03-20T15:22:59;14.47;;;7.93;;
26040;SDS011;13816;53.628;9.950;2023-03-20T15:28:04;16.13;;;7.07;;
26040;SDS011;13816;53.628;9.950;2023-03-20T15:30:31;9.53;;;6.90;;
26040;SDS011;13816;53.628;9.950;2023-03-20T15:32:57;12.50;;;6.83;;
26040;SDS011;13816;53.628;9.950;2023-03-20T15:35:25;11.57;;;6.43;;
26040;SDS011;13816;53.628;9.950;2023-03-20T15:37:52;10.50;;;6.67;;
26040;SDS011;13816;53.628;9.950;2023-03-20T15:43:05;12.75;;;6.63;;
26040;SDS011;13816;53.628;9.950;2023-03-20T15:45:36;12.00;;;7.00;;
26040;SDS011;13816;53.628;9.950;2023-03-20T15:48:05;14.90;;;7.43;;
26040;SDS011;13816;53.628;9.950;2023-03-20T15:50:36;15.43;;;7.50;;
26040;SDS011;13816;53.628;9.950;2023-03-20T15:53:07;9.00;;;7.07;;
26040;SDS011;13816;53.628;9.950;2023-03-20T15:55:36;18.73;;;8.80;;
26040;SDS011;13816;53.628;9.950;2023-03-20T15:58:03;26.67;;;9.07;;
26040;SDS011;13816;53.628;9.950;2023-03-20T16:00:30;17.00;;;9.00;;
26040;SDS011;13816;53.628;9.950;2023-03-20T16:03:00;22.70;;;10.10;;
26040;SDS011;13816;53.628;9.950;2023-03-20T16:05:28;22.60;;;10.03;;
26040;SDS011;13816;53.628;9.950;2023-03-20T16:07:55;16.77;;;9.77;;
26040;SDS011;13816;53.628;9.950;2023-03-20T16:10:29;16.93;;;8.53;;
26040;SDS011;13816;53.628;9.950;2023-03-20T16:12:55;24.00;;;9.90;;
26040;SDS011;13816;53.628;9.950;2023-03-20T16:15:23;15.53;;;9.83;;
26040;SDS011;13816;53.628;9.950;2023-03-20T16:17:52;13.37;;;8.97;;
26040;SDS011;13816;53.628;9.950;2023-03-20T16:20:20;12.60;;;8.70;;
26040;SDS011;13816;53.628;9.950;2023-03-20T16:22:47;17.40;;;8.60;;
26040;SDS011;13816;53.628;9.950;2023-03-20T16:25:15;11.57;;;8.40;;
26040;SDS011;13816;53.628;9.950;2023-03-20T16:27:43;12.40;;;8.70;;
26040;SDS011;13816;53.628;9.950;2023-03-20T16:30:15;14.17;;;7.90;;
26040;SDS011;13816;53.628;9.950;2023-03-20T16:32:43;15.23;;;8.50;;
26040;SDS011;13816;53.628;9.950;2023-03-20T16:35:21;16.00;;;9.50;;
26040;SDS011;13816;53.628;9.950;2023-03-20T16:37:54;12.23;;;8.10;;
26040;SDS011;13816;53.628;9.950;2023-03-20T16:43:12;13.83;;;8.10;;
26040;SDS011;13816;53.628;9.950;2023-03-20T16:45:40;20.73;;;9.87;;
26040;SDS011;13816;53.628;9.950;2023-03-20T16:50:44;15.50;;;8.97;;
26040;SDS011;13816;53.628;9.950;2023-03-20T16:53:17;12.90;;;8.20;;
26040;SDS011;13816;53.628;9.950;2023-03-20T16:55:50;11.30;;;8.20;;
26040;SDS011;13816;53.628;9.950;2023-03-20T16:58:21;15.53;;;9.63;;
26040;SDS011;13816;53.628;9.950;2023-03-20T17:00:59;14.70;;;8.90;;
26040;SDS011;13816;53.628;9.950;2023-03-20T17:03:45;16.87;;;8.90;;
26040;SDS011;13816;53.628;9.950;2023-03-20T17:08:59;13.13;;;8.57;;
26040;SDS011;13816;53.628;9.950;2023-03-20T17:11:28;15.70;;;9.23;;
26040;SDS011;13816;53.628;9.950;2023-03-20T17:13:58;12.77;;;8.23;;
26040;SDS011;13816;53.628;9.950;2023-03-20T17:16:34;15.67;;;8.77;;
26040;SDS011;13816;53.628;9.950;2023-03-20T17:19:05;14.53;;;9.23;;
26040;SDS011;13816;53.628;9.950;2023-03-20T17:21:34;17.20;;;9.37;;
26040;SDS011;13816;53.628;9.950;2023-03-20T17:27:02;17.80;;;10.67;;
26040;SDS011;13816;53.628;9.950;2023-03-20T17:29:31;19.07;;;11.00;;
26040;SDS011;13816;53.628;9.950;2023-03-20T17:32:01;16.70;;;10.30;;
26040;SDS011;13816;53.628;9.950;2023-03-20T17:34:27;22.83;;;11.20;;
26040;SDS011;13816;53.628;9.950;2023-03-20T17:36:53;20.90;;;11.07;;
26040;SDS011;13816;53.628;9.950;2023-03-20T17:39:35;18.80;;;10.87;;
26040;SDS011;13816;53.628;9.950;2023-03-20T17:42:37;21.20;;;11.00;;
26040;SDS011;13816;53.628;9.950;2023-03-20T17:50:34;21.03;;;12.93;;